Terminal Aerodrome Forecast
Issued by NWS

Home | Current Version | Previous Version | Text Only | Print | Product List | Glossary On
Versions: 1 2 3 4 5 6 7 8 9 10 11 12 13 14 15 16
000
FTUS41 KALY 200500
TAFPSF
TAF
KPSF 200520Z 2006/2106 03004KT P6SM BKN250
     FM200800 VRB04KT P6SM SCT250
     FM201700 19007KT P6SM SCT250
     FM210000 VRB04KT P6SM BKN200=

USA.gov is the U.S. government's official web portal to all federal, state and local government web resources and services.